createdAt,value
2023-01-09T00:02:24.088Z,0.10
2023-01-09T00:04:52.388Z,0.10
2023-01-09T00:07:20.645Z,0.50
2023-01-09T00:09:48.887Z,0.33
2023-01-09T00:12:17.144Z,0.10
2023-01-09T00:14:45.436Z,0.50
2023-01-09T00:17:15.045Z,0.17
2023-01-09T00:19:43.319Z,0.40
2023-01-09T00:22:11.588Z,0.30
2023-01-09T00:24:40.040Z,0.40
2023-01-09T00:27:08.385Z,0.37
2023-01-09T00:29:36.686Z,0.63
2023-01-09T00:32:10.061Z,1.13
2023-01-09T00:34:39.794Z,0.50
2023-01-09T00:37:11.918Z,0.30
2023-01-09T00:39:40.241Z,0.90
2023-01-09T00:42:11.842Z,0.30
2023-01-09T00:44:44.374Z,0.10
2023-01-09T00:47:18.134Z,0.40
2023-01-09T00:49:48.595Z,0.10
2023-01-09T00:52:17.294Z,0.17
2023-01-09T00:54:46.167Z,0.33
2023-01-09T00:57:15.507Z,1.50
2023-01-09T00:59:44.172Z,0.80
2023-01-09T01:02:12.769Z,0.10
2023-01-09T01:04:58.482Z,0.20
2023-01-09T01:07:40.237Z,0.20
2023-01-09T01:10:12.166Z,0.10
2023-01-09T01:12:41.664Z,0.10
2023-01-09T01:15:11.291Z,0.50
2023-01-09T01:17:40.644Z,0.27
2023-01-09T01:20:13.613Z,0.70
2023-01-09T01:22:43.459Z,0.70
2023-01-09T01:25:12.875Z,0.33
2023-01-09T01:27:41.223Z,0.77
2023-01-09T01:30:13.306Z,0.27
2023-01-09T01:32:41.855Z,0.10
2023-01-09T01:35:11.568Z,0.80
2023-01-09T01:37:40.616Z,0.93
2023-01-09T01:40:12.035Z,0.20
2023-01-09T01:42:47.198Z,1.60
2023-01-09T01:45:17.070Z,0.20
2023-01-09T01:47:51.373Z,0.57
2023-01-09T01:50:27.188Z,0.30
2023-01-09T01:53:02.251Z,0.20
2023-01-09T01:55:32.478Z,0.10
2023-01-09T01:58:04.179Z,0.20
2023-01-09T02:00:34.887Z,0.10
2023-01-09T02:03:03.803Z,1.07
2023-01-09T02:05:32.609Z,0.30
2023-01-09T02:08:00.867Z,0.50
2023-01-09T02:10:29.573Z,0.50
2023-01-09T02:12:59.498Z,0.10
2023-01-09T02:15:30.801Z,0.20
2023-01-09T02:18:27.134Z,0.73
2023-01-09T02:20:59.348Z,0.30
2023-01-09T02:23:58.678Z,0.20
2023-01-09T02:26:53.030Z,0.10
2023-01-09T02:29:46.337Z,0.50
2023-01-09T02:32:28.568Z,0.20
2023-01-09T02:35:05.542Z,0.13
2023-01-09T02:37:42.585Z,0.20
2023-01-09T02:40:19.706Z,0.13
2023-01-09T02:42:49.471Z,0.47
2023-01-09T02:45:17.739Z,1.13
2023-01-09T02:47:48.291Z,0.30
2023-01-09T02:50:20.587Z,0.20
2023-01-09T02:53:24.975Z,0.10
2023-01-09T02:56:07.519Z,0.20
2023-01-09T02:58:58.046Z,0.20
2023-01-09T03:01:33.821Z,1.63
2023-01-09T03:04:08.375Z,0.27
2023-01-09T03:06:46.712Z,0.50
2023-01-09T03:09:20.227Z,0.10
2023-01-09T03:11:51.619Z,0.60
2023-01-09T03:14:24.405Z,0.10
2023-01-09T03:16:59.487Z,0.80
2023-01-09T03:19:32.701Z,0.37
2023-01-09T03:22:01.254Z,0.30
2023-01-09T03:24:29.815Z,0.20
2023-01-09T03:26:58.155Z,0.10
2023-01-09T03:29:27.456Z,0.60
2023-01-09T03:31:57.512Z,0.10
2023-01-09T03:34:25.775Z,0.10
2023-01-09T03:36:55.358Z,0.10
2023-01-09T03:39:23.563Z,0.20
2023-01-09T03:41:51.950Z,0.10
2023-01-09T03:44:20.151Z,0.93
2023-01-09T03:46:50.206Z,0.30
2023-01-09T03:49:19.309Z,0.30
2023-01-09T03:51:47.587Z,0.10
2023-01-09T03:54:17.352Z,0.40
2023-01-09T03:56:45.921Z,0.20
2023-01-09T03:59:14.151Z,0.10
2023-01-09T04:01:42.565Z,0.60
2023-01-09T04:04:10.885Z,0.10
2023-01-09T04:06:39.105Z,1.27
2023-01-09T04:09:07.387Z,0.10
2023-01-09T04:11:36.980Z,0.10
2023-01-09T04:14:05.723Z,0.30
2023-01-09T04:16:34.021Z,0.20
2023-01-09T04:19:02.350Z,1.13
2023-01-09T04:21:30.579Z,0.10
2023-01-09T04:23:58.941Z,0.50
2023-01-09T04:26:27.366Z,0.10
2023-01-09T04:28:57.015Z,1.53
2023-01-09T04:31:25.306Z,0.10
2023-01-09T04:33:53.617Z,0.10
2023-01-09T04:36:21.839Z,0.57
2023-01-09T04:38:50.032Z,0.20
2023-01-09T04:41:32.180Z,0.43
2023-01-09T04:44:01.787Z,0.77
2023-01-09T04:46:30.053Z,1.03
2023-01-09T04:48:58.272Z,0.30
2023-01-09T04:51:26.498Z,0.30
2023-01-09T04:53:54.657Z,0.10
2023-01-09T04:56:22.865Z,1.27
2023-01-09T04:58:51.141Z,0.10
2023-01-09T05:01:20.912Z,0.20
2023-01-09T05:03:49.230Z,1.70
2023-01-09T05:06:17.507Z,0.20
2023-01-09T05:08:45.755Z,0.50
2023-01-09T05:11:13.999Z,0.10
2023-01-09T05:13:42.252Z,0.40
2023-01-09T05:16:10.764Z,0.10
2023-01-09T05:18:40.409Z,0.10
2023-01-09T05:21:08.714Z,0.10
2023-01-09T05:23:37.005Z,0.50
2023-01-09T05:26:05.827Z,0.73
2023-01-09T05:28:34.542Z,0.73
2023-01-09T05:31:02.878Z,0.30
2023-01-09T05:33:31.271Z,0.10
2023-01-09T05:36:00.865Z,0.10
2023-01-09T05:38:29.066Z,0.10
2023-01-09T05:40:57.327Z,0.37
2023-01-09T05:43:25.573Z,0.20
2023-01-09T05:45:53.776Z,0.40
2023-01-09T05:48:22.140Z,0.20
2023-01-09T05:50:50.369Z,0.20
2023-01-09T05:53:20.106Z,0.57
2023-01-09T05:55:48.300Z,0.30
2023-01-09T05:58:16.564Z,0.87
2023-01-09T06:00:44.788Z,0.57
2023-01-09T06:03:13.128Z,0.33
2023-01-09T06:05:41.402Z,0.10
2023-01-09T06:08:09.664Z,0.20
2023-01-09T06:10:39.299Z,0.50
2023-01-09T06:13:07.518Z,0.60
2023-01-09T06:15:35.862Z,0.20
2023-01-09T06:18:04.584Z,0.27
2023-01-09T06:20:32.908Z,1.17
2023-01-09T06:23:01.304Z,0.37
2023-01-09T06:25:29.534Z,0.20
2023-01-09T06:27:59.169Z,0.47
2023-01-09T06:30:27.469Z,0.10
2023-01-09T06:32:55.750Z,0.73
2023-01-09T06:35:24.032Z,0.40
2023-01-09T06:37:52.614Z,0.50
2023-01-09T06:40:21.356Z,0.40
2023-01-09T06:42:50.489Z,0.10
2023-01-09T06:45:20.145Z,0.93
2023-01-09T06:47:50.134Z,0.10
2023-01-09T06:50:18.873Z,0.20
2023-01-09T06:52:47.114Z,0.30
2023-01-09T06:55:16.726Z,0.33
2023-01-09T06:57:45.333Z,0.20
2023-01-09T07:00:14.353Z,0.40
2023-01-09T07:02:43.953Z,0.10
2023-01-09T07:05:12.664Z,0.17
2023-01-09T07:07:41.308Z,0.10
2023-01-09T07:10:11.215Z,0.10
2023-01-09T07:12:39.430Z,0.50
2023-01-09T07:15:08.757Z,0.13
2023-01-09T07:17:37.036Z,0.37
2023-01-09T07:20:08.439Z,0.30
2023-01-09T07:22:36.736Z,0.50
2023-01-09T07:25:05.830Z,0.13
2023-01-09T07:27:34.109Z,1.20
2023-01-09T07:30:02.301Z,0.10
2023-01-09T07:32:31.616Z,0.33
2023-01-09T07:34:59.912Z,0.43
2023-01-09T07:37:29.563Z,0.10
2023-01-09T07:39:57.870Z,0.50
2023-01-09T07:42:26.122Z,0.70
2023-01-09T07:44:54.389Z,0.20
2023-01-09T07:47:22.722Z,0.10
2023-01-09T07:49:50.996Z,0.10
2023-01-09T07:52:19.265Z,0.10
2023-01-09T07:54:48.908Z,0.43
2023-01-09T07:57:17.189Z,0.10
2023-01-09T07:59:45.425Z,0.40
2023-01-09T08:02:13.692Z,0.10
2023-01-09T08:04:42.006Z,0.13
2023-01-09T08:07:10.249Z,0.10
2023-01-09T08:09:38.471Z,0.10
2023-01-09T08:12:08.289Z,0.30
2023-01-09T08:14:36.822Z,0.10
2023-01-09T08:17:05.370Z,0.67
2023-01-09T08:19:33.713Z,0.27
2023-01-09T08:22:05.400Z,0.77
2023-01-09T08:24:33.883Z,0.20
2023-01-09T08:27:02.317Z,0.23
2023-01-09T08:29:31.919Z,0.20
2023-01-09T08:32:00.286Z,0.20
2023-01-09T08:34:28.992Z,0.70
2023-01-09T08:36:57.913Z,0.10
2023-01-09T08:39:26.227Z,0.27
2023-01-09T08:42:12.071Z,0.30
2023-01-09T08:44:59.170Z,1.00
2023-01-09T08:47:33.316Z,0.30
2023-01-09T08:50:01.650Z,0.10
2023-01-09T08:52:30.738Z,0.20
2023-01-09T08:54:58.984Z,0.10
2023-01-09T08:57:27.305Z,0.10
2023-01-09T08:59:56.978Z,0.10
2023-01-09T09:02:25.387Z,0.20
2023-01-09T09:04:53.945Z,0.20
2023-01-09T09:07:26.608Z,0.50
2023-01-09T09:09:55.132Z,0.57
2023-01-09T09:12:23.802Z,0.20
2023-01-09T09:15:09.493Z,0.30
2023-01-09T09:17:40.288Z,0.10
2023-01-09T09:20:10.063Z,0.20
2023-01-09T09:22:38.397Z,0.17
2023-01-09T09:25:07.625Z,0.10
2023-01-09T09:27:36.618Z,0.33
2023-01-09T09:30:06.213Z,0.53
2023-01-09T09:32:34.503Z,0.33
2023-01-09T09:35:04.241Z,0.40
2023-01-09T09:37:32.557Z,0.57
2023-01-09T09:40:09.901Z,0.30
2023-01-09T09:43:23.120Z,0.10
2023-01-09T09:45:58.834Z,0.20
2023-01-09T09:48:37.361Z,0.10
2023-01-09T09:51:30.849Z,0.43
2023-01-09T09:54:02.107Z,0.43
2023-01-09T09:56:35.702Z,0.20
2023-01-09T09:59:08.279Z,1.00
2023-01-09T10:01:41.873Z,0.10
2023-01-09T10:04:15.349Z,0.30
2023-01-09T10:06:46.631Z,0.20
2023-01-09T10:09:24.393Z,0.10
2023-01-09T10:12:00.712Z,1.50
2023-01-09T10:14:29.125Z,0.10
2023-01-09T10:17:17.481Z,0.37
2023-01-09T10:19:59.542Z,0.20
2023-01-09T10:22:36.944Z,0.20
2023-01-09T10:25:17.759Z,0.20
2023-01-09T10:28:01.698Z,0.77
2023-01-09T10:30:38.764Z,0.10
2023-01-09T10:33:22.027Z,0.20
2023-01-09T10:36:16.671Z,0.20
2023-01-09T10:38:50.130Z,0.40
2023-01-09T10:41:22.905Z,0.77
2023-01-09T10:43:56.207Z,0.13
2023-01-09T10:46:29.385Z,0.20
2023-01-09T10:49:02.291Z,0.93
2023-01-09T10:51:38.325Z,0.17
2023-01-09T10:54:15.379Z,0.57
2023-01-09T10:56:49.043Z,0.20
2023-01-09T10:59:17.376Z,0.20
2023-01-09T11:01:46.056Z,0.27
2023-01-09T11:04:24.294Z,0.43
2023-01-09T11:06:57.314Z,0.70
2023-01-09T11:09:27.190Z,0.10
2023-01-09T11:11:55.495Z,0.20
2023-01-09T11:14:27.880Z,0.67
2023-01-09T11:16:58.352Z,1.13
2023-01-09T11:19:28.003Z,1.23
2023-01-09T11:22:08.468Z,0.30
2023-01-09T11:24:38.247Z,0.30
2023-01-09T11:27:23.791Z,0.20
2023-01-09T11:30:21.245Z,0.53
2023-01-09T11:32:49.899Z,0.20
2023-01-09T11:35:26.606Z,0.30
2023-01-09T11:38:06.831Z,0.33
2023-01-09T11:40:46.631Z,0.20
2023-01-09T11:43:20.294Z,0.40
2023-01-09T11:46:01.093Z,1.03
2023-01-09T11:48:41.451Z,0.83
2023-01-09T11:51:24.221Z,0.90
2023-01-09T11:54:01.429Z,0.40
2023-01-09T11:56:31.537Z,0.63
2023-01-09T11:59:00.758Z,0.40
2023-01-09T12:01:47.466Z,0.30
2023-01-09T12:04:25.057Z,0.30
2023-01-09T12:07:07.171Z,0.57
2023-01-09T12:09:44.271Z,0.40
2023-01-09T12:12:25.472Z,1.27
2023-01-09T12:15:08.042Z,0.20
2023-01-09T12:18:08.688Z,0.60
2023-01-09T12:20:51.645Z,0.53
2023-01-09T12:23:36.210Z,0.27
2023-01-09T12:26:16.874Z,0.10
2023-01-09T12:29:12.187Z,0.30
2023-01-09T12:32:07.749Z,0.20
2023-01-09T12:34:47.630Z,0.97
2023-01-09T12:37:37.559Z,0.77
2023-01-09T12:40:24.092Z,0.20
2023-01-09T12:43:01.162Z,0.37
2023-01-09T12:45:52.018Z,0.83
2023-01-09T12:48:34.524Z,4.03
2023-01-09T12:51:15.320Z,3.80
2023-01-09T12:53:48.170Z,4.30
2023-01-09T12:56:20.907Z,3.87
2023-01-09T12:58:54.303Z,4.20
2023-01-09T13:01:29.780Z,4.47
2023-01-09T13:04:11.118Z,4.37
2023-01-09T13:06:44.424Z,3.73
2023-01-09T13:09:22.929Z,4.03
2023-01-09T13:12:00.186Z,3.73
2023-01-09T13:14:40.347Z,4.53
2023-01-09T13:17:15.208Z,4.60
2023-01-09T13:19:46.173Z,4.27
2023-01-09T13:22:18.047Z,4.40
2023-01-09T13:25:02.929Z,4.20
2023-01-09T13:27:36.037Z,4.03
2023-01-09T13:30:16.536Z,3.77
2023-01-09T13:32:56.113Z,3.63
2023-01-09T13:35:24.544Z,3.40
2023-01-09T13:37:53.997Z,3.30
2023-01-09T13:40:30.538Z,3.20
2023-01-09T13:43:01.191Z,2.90
2023-01-09T13:45:31.363Z,3.23
2023-01-09T13:48:29.367Z,2.87
2023-01-09T13:51:31.109Z,2.90
2023-01-09T13:53:59.451Z,2.80
2023-01-09T13:56:27.840Z,3.17
2023-01-09T13:59:03.938Z,3.00
2023-01-09T14:01:47.488Z,3.33
2023-01-09T14:04:42.102Z,4.10
2023-01-09T14:07:26.426Z,3.40
2023-01-09T14:10:00.787Z,3.07
2023-01-09T14:12:31.323Z,3.20
2023-01-09T14:15:03.120Z,2.70
2023-01-09T14:17:35.492Z,2.40
2023-01-09T14:20:08.374Z,2.70
2023-01-09T14:22:46.165Z,2.73
2023-01-09T14:25:27.255Z,2.33
2023-01-09T14:28:08.459Z,1.93
2023-01-09T14:30:39.243Z,2.00
2023-01-09T14:33:27.101Z,2.00
2023-01-09T14:36:10.278Z,1.83
2023-01-09T14:38:42.648Z,1.80
2023-01-09T14:41:44.010Z,1.57
2023-01-09T14:44:26.136Z,1.73
2023-01-09T14:46:55.500Z,1.80
2023-01-09T14:49:33.027Z,1.90
2023-01-09T14:52:09.198Z,2.27
2023-01-09T14:54:41.451Z,1.60
2023-01-09T14:57:25.553Z,1.90
2023-01-09T14:59:58.612Z,2.20
2023-01-09T15:02:29.130Z,1.80
2023-01-09T15:05:00.833Z,2.77
2023-01-09T15:07:34.840Z,2.17
2023-01-09T15:10:05.702Z,1.83
2023-01-09T15:12:35.077Z,1.87
2023-01-09T15:15:05.301Z,2.40
2023-01-09T15:17:38.269Z,2.20
2023-01-09T15:20:08.923Z,1.73
2023-01-09T15:22:38.944Z,2.00
2023-01-09T15:25:30.550Z,2.23
2023-01-09T15:28:20.822Z,0.10
2023-01-09T15:30:55.528Z,0.30
2023-01-09T15:33:24.018Z,0.50
2023-01-09T15:35:58.509Z,0.67
2023-01-09T15:38:30.456Z,0.87
2023-01-09T15:41:00.963Z,1.00
2023-01-09T15:43:31.058Z,0.70
2023-01-09T15:46:00.176Z,0.70
2023-01-09T15:48:32.424Z,0.40
2023-01-09T15:51:06.235Z,0.57
2023-01-09T15:53:36.071Z,0.20
2023-01-09T15:56:16.272Z,0.23
2023-01-09T15:58:47.247Z,0.43
2023-01-09T16:01:26.895Z,0.13
2023-01-09T16:03:57.164Z,0.10
2023-01-09T16:06:28.766Z,0.53
2023-01-09T16:09:00.636Z,0.20
2023-01-09T16:11:31.056Z,0.10
2023-01-09T16:14:13.023Z,0.10
2023-01-09T16:16:42.457Z,0.20
2023-01-09T16:19:30.046Z,0.40
2023-01-09T16:21:59.686Z,0.20
2023-01-09T16:24:35.902Z,0.57
2023-01-09T16:27:30.009Z,0.10
2023-01-09T16:29:59.793Z,1.23
2023-01-09T16:32:30.776Z,0.10
2023-01-09T16:35:01.991Z,0.10
2023-01-09T16:37:33.338Z,1.07
2023-01-09T16:40:37.217Z,0.20
2023-01-09T16:43:11.323Z,0.70
2023-01-09T16:45:41.683Z,0.50
2023-01-09T16:48:15.604Z,0.20
2023-01-09T16:50:44.524Z,0.10
2023-01-09T16:53:20.902Z,0.10
2023-01-09T16:55:49.777Z,0.30
2023-01-09T16:58:24.867Z,0.30
2023-01-09T17:00:53.246Z,0.10
2023-01-09T17:03:21.724Z,0.87
2023-01-09T17:05:52.287Z,0.47
2023-01-09T17:08:23.271Z,0.10
2023-01-09T17:10:51.599Z,0.57
2023-01-09T17:13:21.479Z,1.20
2023-01-09T17:15:50.109Z,0.10
2023-01-09T17:18:20.010Z,0.13
2023-01-09T17:20:50.405Z,0.20
2023-01-09T17:23:20.442Z,0.20
2023-01-09T17:26:07.421Z,1.13
2023-01-09T17:28:37.506Z,0.60
2023-01-09T17:31:09.257Z,2.00
2023-01-09T17:33:38.570Z,0.10
2023-01-09T17:36:17.950Z,0.73
2023-01-09T17:38:47.266Z,0.20
2023-01-09T17:41:15.519Z,2.03
2023-01-09T17:43:46.775Z,1.10
2023-01-09T17:46:17.586Z,0.30
2023-01-09T17:48:46.323Z,0.50
2023-01-09T17:51:14.581Z,0.33
2023-01-09T17:53:42.852Z,0.27
2023-01-09T17:56:17.628Z,0.40
2023-01-09T17:58:47.867Z,0.20
2023-01-09T18:01:18.316Z,0.40
2023-01-09T18:03:48.943Z,0.13
2023-01-09T18:06:19.981Z,0.23
2023-01-09T18:08:48.510Z,1.47
2023-01-09T18:11:18.857Z,0.30
2023-01-09T18:13:49.797Z,0.70
2023-01-09T18:16:20.167Z,0.10
2023-01-09T18:18:48.505Z,0.10
2023-01-09T18:21:18.638Z,0.30
2023-01-09T18:23:47.796Z,0.10
2023-01-09T18:26:20.846Z,0.47
2023-01-09T18:28:52.576Z,1.07
2023-01-09T18:31:23.970Z,0.27
2023-01-09T18:33:53.492Z,0.23
2023-01-09T18:36:23.724Z,0.20
2023-01-09T18:38:53.485Z,0.37
2023-01-09T18:41:22.620Z,0.27
2023-01-09T18:43:52.954Z,0.83
2023-01-09T18:46:24.615Z,0.33
2023-01-09T18:48:54.197Z,0.50
2023-01-09T18:51:23.488Z,0.50
2023-01-09T18:53:52.810Z,0.10
2023-01-09T18:56:21.355Z,0.23
2023-01-09T18:58:49.867Z,0.70
2023-01-09T19:01:19.618Z,0.67
2023-01-09T19:03:48.754Z,0.40
2023-01-09T19:06:17.071Z,0.10
2023-01-09T19:08:45.469Z,0.30
2023-01-09T19:11:13.707Z,0.63
2023-01-09T19:13:42.290Z,1.13
2023-01-09T19:16:11.976Z,0.67
2023-01-09T19:18:43.053Z,0.50
2023-01-09T19:21:13.245Z,0.67
2023-01-09T19:23:43.339Z,0.77
2023-01-09T19:26:18.158Z,0.33
2023-01-09T19:28:46.764Z,1.87
2023-01-09T19:31:15.640Z,1.67
2023-01-09T19:33:45.757Z,0.97
2023-01-09T19:36:14.110Z,2.33
2023-01-09T19:38:43.544Z,0.20
2023-01-09T19:41:14.524Z,1.37
2023-01-09T19:43:43.411Z,0.70
2023-01-09T19:46:13.954Z,0.30
2023-01-09T19:48:43.637Z,0.20
2023-01-09T19:51:15.598Z,2.27
2023-01-09T19:53:44.075Z,0.13
2023-01-09T19:56:13.981Z,0.47
2023-01-09T19:58:43.943Z,0.17
2023-01-09T20:01:14.269Z,0.20
2023-01-09T20:03:43.388Z,0.20
2023-01-09T20:06:17.375Z,0.40
2023-01-09T20:08:47.524Z,1.00
2023-01-09T20:11:16.912Z,0.63
2023-01-09T20:13:45.462Z,0.57
2023-01-09T20:16:17.170Z,1.30
2023-01-09T20:18:45.511Z,0.70
2023-01-09T20:21:22.132Z,1.57
2023-01-09T20:23:50.661Z,0.90
2023-01-09T20:26:19.434Z,0.53
2023-01-09T20:28:48.554Z,2.10
2023-01-09T20:31:20.220Z,1.60
2023-01-09T20:33:49.596Z,0.70
2023-01-09T20:36:21.652Z,1.30
2023-01-09T20:38:50.159Z,0.70
2023-01-09T20:41:23.538Z,0.60
2023-01-09T20:43:53.980Z,0.80
2023-01-09T20:46:24.918Z,0.43
2023-01-09T20:48:55.859Z,0.30
2023-01-09T20:51:25.865Z,0.33
2023-01-09T20:53:55.941Z,0.27
2023-01-09T20:56:25.120Z,2.63
2023-01-09T20:58:54.248Z,0.30
2023-01-09T21:01:23.058Z,0.73
2023-01-09T21:03:51.791Z,1.07
2023-01-09T21:06:22.148Z,1.13
2023-01-09T21:08:53.058Z,1.20
2023-01-09T21:11:21.880Z,0.93
2023-01-09T21:13:50.992Z,1.30
2023-01-09T21:16:21.791Z,0.57
2023-01-09T21:18:50.616Z,0.80
2023-01-09T21:21:21.523Z,3.40
2023-01-09T21:23:53.153Z,0.40
2023-01-09T21:26:24.449Z,1.00
2023-01-09T21:28:55.201Z,1.70
2023-01-09T21:31:26.270Z,0.50
2023-01-09T21:33:55.330Z,1.70
2023-01-09T21:36:24.010Z,2.13
2023-01-09T21:38:54.144Z,0.67
2023-01-09T21:41:40.524Z,0.30
2023-01-09T21:44:30.017Z,1.80
2023-01-09T21:46:59.826Z,1.57
2023-01-09T21:49:31.275Z,1.60
2023-01-09T21:51:59.905Z,0.10
2023-01-09T21:54:29.525Z,0.67
2023-01-09T21:56:57.918Z,0.10
2023-01-09T21:59:26.658Z,0.20
2023-01-09T22:01:54.979Z,1.13
2023-01-09T22:04:26.308Z,0.77
2023-01-09T22:06:54.981Z,0.33
2023-01-09T22:09:23.392Z,0.47
2023-01-09T22:11:53.039Z,0.60
2023-01-09T22:14:21.902Z,0.20
2023-01-09T22:16:50.168Z,1.47
2023-01-09T22:19:18.521Z,2.63
2023-01-09T22:21:47.276Z,0.97
2023-01-09T22:24:16.962Z,0.77
2023-01-09T22:26:45.691Z,0.60
2023-01-09T22:29:16.140Z,2.23
2023-01-09T22:31:44.523Z,0.43
2023-01-09T22:34:16.236Z,0.30
2023-01-09T22:36:45.337Z,1.80
2023-01-09T22:39:15.689Z,0.10
2023-01-09T22:41:44.238Z,1.67
2023-01-09T22:44:14.994Z,1.40
2023-01-09T22:46:43.199Z,1.27
2023-01-09T22:49:12.295Z,1.10
2023-01-09T22:51:40.794Z,0.30
2023-01-09T22:54:09.405Z,1.07
2023-01-09T22:56:37.727Z,0.63
2023-01-09T22:59:06.847Z,2.27
2023-01-09T23:01:36.544Z,0.93
2023-01-09T23:04:05.208Z,0.60
2023-01-09T23:06:33.472Z,0.33
2023-01-09T23:09:01.775Z,0.10
2023-01-09T23:11:49.610Z,1.17
2023-01-09T23:14:18.404Z,1.83
2023-01-09T23:16:48.186Z,0.50
2023-01-09T23:19:16.948Z,0.37
2023-01-09T23:21:46.053Z,0.20
2023-01-09T23:24:16.172Z,0.20
2023-01-09T23:26:44.712Z,0.67
2023-01-09T23:29:13.734Z,0.57
2023-01-09T23:31:42.130Z,0.30
2023-01-09T23:34:15.773Z,0.30
2023-01-09T23:36:44.297Z,0.50
2023-01-09T23:39:12.606Z,0.10
2023-01-09T23:41:59.539Z,0.17
2023-01-09T23:44:28.604Z,0.10
2023-01-09T23:46:57.168Z,0.30
2023-01-09T23:49:26.892Z,1.27
2023-01-09T23:51:56.433Z,1.07
2023-01-09T23:54:24.668Z,2.70
2023-01-09T23:56:56.406Z,0.57
2023-01-09T23:59:24.755Z,0.33
